Grey Lady — WDC9414 — position and weather

sailwx.info

Track history (hours):
 
Tides and Currents Weather Stations Pressure Air Temp Water Temp Dewpoint Dewpoint Depression Visibility Wind Speed Wind Dir Waves Ship Positions

Grey Lady

Owner: HYANNIS HARBOR TOURS INC, HYANNIS, MA. More information available from US FCC via Universal Licensing System and Coast Guard Vessel Documentation Center.

Last reported at 2018-May-19 13:13 UTC. Time now 2018-May-23 03:15 UTC.
Position N 41°36' W 070°17'.

Length 44 m; draft 2 m.

Type: High speed craft. MMSI: 367101920.

Date/timePositionNaut miles runAvg speedWind from/ knotsBaromVisibWave heightAir tempDewpointWater temp
2018-May-19 13:13N 41°36' W 070°17'  
2018-May-15 00:10N 41°39' W 070°17'1 5.9
2018-May-15 00:00N 41°38' W 070°16'6 2.9
2018-May-14 22:04N 41°32' W 070°16'230.8
2018-May-14 22:00N 41°34' W 070°17'5 9.9
2018-May-14 21:30N 41°39' W 070°17'1 1.9
2018-May-14 21:00N 41°38' W 070°16'6 2.6
2018-May-14 18:49N 41°32' W 070°16'720.7
2018-May-14 18:30N 41°39' W 070°16'0 0.6
2018-May-14 18:00N 41°39' W 070°17'6 2.5
2018-May-14 15:44N 41°33' W 070°16'522.0
2018-May-14 15:30N 41°38' W 070°16'1 1.2
2018-May-14 15:00N 41°39' W 070°17'0 0.0
2018-May-14 14:30N 41°39' W 070°17'0 0.3
2018-May-14 14:00N 41°39' W 070°17'3 6.1
2018-May-14 13:31N 41°36' W 070°16'3 5.4
2018-May-14 13:00N 41°39' W 070°16'  
Track history (hours):
 
Tides and Currents Weather Stations Pressure Air Temp Water Temp Dewpoint Dewpoint Depression Visibility Wind Speed Wind Dir Waves Ship Positions

Grey Lady

Owner: HYANNIS HARBOR TOURS INC, HYANNIS, MA. More information available from US FCC via Universal Licensing System and Coast Guard Vessel Documentation Center.

Last reported at 2018-May-19 13:13 UTC. Time now 2018-May-23 03:15 UTC.
Position N 41°36' W 070°17'.

Length 44 m; draft 2 m.

Type: High speed craft. MMSI: 367101920.

Date/timePositionNaut miles runAvg speedWind from/ knotsBaromVisibWave heightAir tempDewpointWater temp
2018-May-19 13:13N 41°36' W 070°17'  
2018-May-15 00:10N 41°39' W 070°17'1 5.9
2018-May-15 00:00N 41°38' W 070°16'6 2.9
2018-May-14 22:04N 41°32' W 070°16'230.8
2018-May-14 22:00N 41°34' W 070°17'5 9.9
2018-May-14 21:30N 41°39' W 070°17'1 1.9
2018-May-14 21:00N 41°38' W 070°16'6 2.6
2018-May-14 18:49N 41°32' W 070°16'720.7
2018-May-14 18:30N 41°39' W 070°16'0 0.6
2018-May-14 18:00N 41°39' W 070°17'6 2.5
2018-May-14 15:44N 41°33' W 070°16'522.0
2018-May-14 15:30N 41°38' W 070°16'1 1.2
2018-May-14 15:00N 41°39' W 070°17'0 0.0
2018-May-14 14:30N 41°39' W 070°17'0 0.3
2018-May-14 14:00N 41°39' W 070°17'3 6.1
2018-May-14 13:31N 41°36' W 070°16'3 5.4
2018-May-14 13:00N 41°39' W 070°16'  

Dump ship's entire track history